createdAt,value
2023-05-10T00:01:15.633Z,3.30
2023-05-10T00:04:17.379Z,2.90
2023-05-10T00:07:19.202Z,2.80
2023-05-10T00:10:20.847Z,3.10
2023-05-10T00:13:23.138Z,2.70
2023-05-10T00:16:24.840Z,2.87
2023-05-10T00:19:26.597Z,3.20
2023-05-10T00:22:28.279Z,3.03
2023-05-10T00:25:29.997Z,2.87
2023-05-10T00:28:31.706Z,3.50
2023-05-10T00:31:33.412Z,3.07
2023-05-10T00:34:35.108Z,3.00
2023-05-10T00:37:36.798Z,3.40
2023-05-10T00:40:38.745Z,3.10
2023-05-10T00:43:40.443Z,3.40
2023-05-10T00:46:42.828Z,3.00
2023-05-10T00:49:45.675Z,3.03
2023-05-10T00:52:47.402Z,3.17
2023-05-10T00:55:49.177Z,2.70
2023-05-10T00:58:51.021Z,3.17
2023-05-10T01:01:54.150Z,3.43
2023-05-10T01:04:56.349Z,3.30
2023-05-10T01:07:58.086Z,3.40
2023-05-10T01:10:59.952Z,3.00
2023-05-10T01:14:02.527Z,3.33
2023-05-10T01:17:05.912Z,3.33
2023-05-10T01:20:09.924Z,3.10
2023-05-10T01:23:42.768Z,3.47
2023-05-10T01:26:59.439Z,3.30
2023-05-10T01:30:44.162Z,3.47
2023-05-10T01:34:28.523Z,3.50
2023-05-10T01:37:51.128Z,3.13
2023-05-10T01:41:06.506Z,3.40
2023-05-10T01:44:38.441Z,3.30
2023-05-10T01:47:44.660Z,3.20
2023-05-10T01:50:48.805Z,3.43
2023-05-10T01:53:52.283Z,3.33
2023-05-10T01:57:00.323Z,3.10
2023-05-10T02:00:06.066Z,3.47
2023-05-10T02:03:11.312Z,2.87
2023-05-10T02:06:15.785Z,3.20
2023-05-10T02:09:18.748Z,3.40
2023-05-10T02:12:21.491Z,3.37
2023-05-10T02:15:25.830Z,3.40
2023-05-10T02:18:28.629Z,3.40
2023-05-10T02:21:31.837Z,3.43
2023-05-10T02:24:35.579Z,3.57
2023-05-10T02:27:38.130Z,3.70
2023-05-10T02:30:40.678Z,3.37
2023-05-10T02:33:43.801Z,3.13
2023-05-10T02:36:45.516Z,3.40
2023-05-10T02:39:49.002Z,3.30
2023-05-10T02:42:55.165Z,4.00
2023-05-10T02:45:56.920Z,3.13
2023-05-10T02:48:58.798Z,3.60
2023-05-10T02:52:05.291Z,3.60
2023-05-10T02:55:09.321Z,3.67
2023-05-10T02:58:11.111Z,3.53
2023-05-10T03:01:12.994Z,3.87
2023-05-10T03:04:14.823Z,3.30
2023-05-10T03:07:20.197Z,3.37
2023-05-10T03:10:27.765Z,3.53
2023-05-10T03:13:57.533Z,3.60
2023-05-10T03:17:30.787Z,4.00
2023-05-10T03:20:38.246Z,3.50
2023-05-10T03:23:54.365Z,3.77
2023-05-10T03:26:59.901Z,3.93
2023-05-10T03:30:03.258Z,4.07
2023-05-10T03:33:08.091Z,4.00
2023-05-10T03:36:09.841Z,3.97
2023-05-10T03:39:11.676Z,3.70
2023-05-10T03:42:13.330Z,4.00
2023-05-10T03:45:15.001Z,4.60
2023-05-10T03:48:16.869Z,4.37
2023-05-10T03:51:18.521Z,4.30
2023-05-10T03:54:20.228Z,4.40
2023-05-10T03:57:21.873Z,4.67
2023-05-10T04:00:23.526Z,4.23
2023-05-10T04:03:26.823Z,4.23
2023-05-10T04:06:28.629Z,4.60
2023-05-10T04:09:30.350Z,4.83
2023-05-10T04:12:31.968Z,5.07
2023-05-10T04:15:33.635Z,5.40
2023-05-10T04:18:35.732Z,4.87
2023-05-10T04:21:37.586Z,4.97
2023-05-10T04:24:39.249Z,7.73
2023-05-10T04:27:40.982Z,7.27
2023-05-10T04:30:42.940Z,6.07
2023-05-10T04:33:44.626Z,6.13
2023-05-10T04:36:46.665Z,5.80
2023-05-10T04:39:48.338Z,5.80
2023-05-10T04:42:50.331Z,8.80
2023-05-10T04:45:52.028Z,9.70
2023-05-10T04:48:53.787Z,7.03
2023-05-10T04:51:55.457Z,6.27
2023-05-10T04:54:57.154Z,5.87
2023-05-10T04:57:59.972Z,6.77
2023-05-10T05:01:09.412Z,5.87
2023-05-10T05:04:11.129Z,6.03
2023-05-10T05:07:12.790Z,6.73
2023-05-10T05:10:14.639Z,7.70
2023-05-10T05:13:16.431Z,6.87
2023-05-10T05:16:18.254Z,5.90
2023-05-10T05:19:19.965Z,6.30
2023-05-10T05:22:28.174Z,5.33
2023-05-10T05:25:29.954Z,6.17
2023-05-10T05:28:33.876Z,5.33
2023-05-10T05:31:35.602Z,6.73
2023-05-10T05:34:37.276Z,5.13
2023-05-10T05:37:39.100Z,5.40
2023-05-10T05:40:40.759Z,6.00
2023-05-10T05:43:42.484Z,5.07
2023-05-10T05:46:44.119Z,5.17
2023-05-10T05:49:46.911Z,5.47
2023-05-10T05:52:48.638Z,6.07
2023-05-10T05:55:54.783Z,5.77
2023-05-10T05:58:56.402Z,5.30
2023-05-10T06:01:58.216Z,4.57
2023-05-10T06:04:59.921Z,4.47
2023-05-10T06:08:02.022Z,3.93
2023-05-10T06:11:05.077Z,3.47
2023-05-10T06:14:08.132Z,3.80
2023-05-10T06:17:09.890Z,3.97
2023-05-10T06:20:12.323Z,3.83
2023-05-10T06:23:13.985Z,3.67
2023-05-10T06:26:15.695Z,3.80
2023-05-10T06:29:17.363Z,4.03
2023-05-10T06:32:19.017Z,3.80
2023-05-10T06:35:20.830Z,4.07
2023-05-10T06:38:22.767Z,3.60
2023-05-10T06:41:24.879Z,4.07
2023-05-10T06:44:26.708Z,4.13
2023-05-10T06:47:28.500Z,6.60
2023-05-10T06:50:30.191Z,3.83
2023-05-10T06:53:31.887Z,4.87
2023-05-10T06:56:33.723Z,3.70
2023-05-10T06:59:35.441Z,5.30
2023-05-10T07:02:37.429Z,4.00
2023-05-10T07:05:39.412Z,3.57
2023-05-10T07:08:41.264Z,3.63
2023-05-10T07:11:42.963Z,3.80
2023-05-10T07:14:44.692Z,2.97
2023-05-10T07:17:46.622Z,3.10
2023-05-10T07:20:48.470Z,2.97
2023-05-10T07:23:50.639Z,2.90
2023-05-10T07:26:52.288Z,3.30
2023-05-10T07:30:31.656Z,4.20
2023-05-10T07:33:40.854Z,2.10
2023-05-10T07:36:49.382Z,2.60
2023-05-10T07:39:51.031Z,2.70
2023-05-10T07:42:52.888Z,2.43
2023-05-10T07:45:56.260Z,2.67
2023-05-10T07:48:58.074Z,1.20
2023-05-10T07:51:59.705Z,1.50
2023-05-10T07:55:19.923Z,1.33
2023-05-10T07:58:21.583Z,2.77
2023-05-10T08:01:24.204Z,2.10
2023-05-10T08:04:25.907Z,1.10
2023-05-10T08:07:27.600Z,0.90
2023-05-10T08:10:29.333Z,0.93
2023-05-10T08:13:32.342Z,1.10
2023-05-10T08:16:34.104Z,1.37
2023-05-10T08:20:31.928Z,1.17
2023-05-10T08:23:33.962Z,1.10
2023-05-10T08:26:42.399Z,1.00
2023-05-10T08:29:50.698Z,1.80
2023-05-10T08:33:20.535Z,1.40
2023-05-10T08:36:25.028Z,1.17
2023-05-10T08:39:30.488Z,1.30
2023-05-10T08:42:37.091Z,1.20
2023-05-10T08:45:41.652Z,1.20
2023-05-10T08:48:45.635Z,1.37
2023-05-10T08:51:54.631Z,1.33
2023-05-10T08:54:56.419Z,1.30
2023-05-10T08:57:58.131Z,1.60
2023-05-10T09:01:00.459Z,1.40
2023-05-10T09:04:02.676Z,1.60
2023-05-10T09:07:04.500Z,1.53
2023-05-10T09:10:07.011Z,1.60
2023-05-10T09:13:10.818Z,1.30
2023-05-10T09:16:21.031Z,1.20
2023-05-10T09:19:24.145Z,1.50
2023-05-10T09:22:26.102Z,1.13
2023-05-10T09:25:27.943Z,0.87
2023-05-10T09:28:33.380Z,0.90
2023-05-10T09:31:46.021Z,0.97
2023-05-10T09:34:51.033Z,1.00
2023-05-10T09:37:57.484Z,1.00
2023-05-10T09:40:59.156Z,1.40
2023-05-10T09:44:29.873Z,1.17
2023-05-10T09:47:36.239Z,0.70
2023-05-10T09:50:37.905Z,0.77
2023-05-10T09:53:39.614Z,0.53
2023-05-10T09:56:41.792Z,0.70
2023-05-10T09:59:44.239Z,2.77
2023-05-10T10:02:55.767Z,1.10
2023-05-10T10:05:57.982Z,0.90
2023-05-10T10:08:59.721Z,7.50
2023-05-10T10:12:03.033Z,1.20
2023-05-10T10:15:06.094Z,1.10
2023-05-10T10:18:08.933Z,1.80
2023-05-10T10:21:11.085Z,1.10
2023-05-10T10:24:12.738Z,1.10
2023-05-10T10:27:39.757Z,1.07
2023-05-10T10:31:25.503Z,1.23
2023-05-10T10:34:29.176Z,1.13
2023-05-10T10:37:47.857Z,1.10
2023-05-10T10:40:49.958Z,0.93
2023-05-10T10:44:27.214Z,1.90
2023-05-10T10:47:33.873Z,0.90
2023-05-10T10:50:45.943Z,1.40
2023-05-10T10:53:49.296Z,1.07
2023-05-10T10:57:11.611Z,1.20
2023-05-10T11:00:33.742Z,1.00
2023-05-10T11:03:35.431Z,1.27
2023-05-10T11:06:37.691Z,1.10
2023-05-10T11:09:42.613Z,1.03
2023-05-10T11:13:02.007Z,1.40
2023-05-10T11:16:26.521Z,1.10
2023-05-10T11:19:31.417Z,1.10
2023-05-10T11:22:53.404Z,1.30
2023-05-10T11:25:55.744Z,1.30
2023-05-10T11:29:19.415Z,1.50
2023-05-10T11:32:21.586Z,1.60
2023-05-10T11:35:23.241Z,1.90
2023-05-10T11:38:24.908Z,1.80
2023-05-10T11:41:29.497Z,1.50
2023-05-10T11:44:32.448Z,1.80
2023-05-10T11:47:36.550Z,1.43
2023-05-10T11:50:38.405Z,1.30
2023-05-10T11:53:40.094Z,1.57
2023-05-10T11:56:42.144Z,1.30
2023-05-10T11:59:43.844Z,1.60
2023-05-10T12:02:45.772Z,1.30
2023-05-10T12:05:47.556Z,1.40
2023-05-10T12:08:54.792Z,1.20
2023-05-10T12:12:00.562Z,1.20
2023-05-10T12:15:04.203Z,1.20
2023-05-10T12:18:06.392Z,1.03
2023-05-10T12:21:08.107Z,1.43
2023-05-10T12:24:09.893Z,1.60
2023-05-10T12:27:13.211Z,1.97
2023-05-10T12:30:26.629Z,1.70
2023-05-10T12:33:51.395Z,1.80
2023-05-10T12:36:54.163Z,1.60
2023-05-10T12:39:55.832Z,1.70
2023-05-10T12:42:57.563Z,2.20
2023-05-10T12:45:59.887Z,2.10
2023-05-10T12:49:09.093Z,2.23
2023-05-10T12:52:11.513Z,2.47
2023-05-10T12:55:13.160Z,2.60
2023-05-10T12:58:31.378Z,2.50
2023-05-10T13:01:36.898Z,2.50
2023-05-10T13:04:40.676Z,2.73
2023-05-10T13:07:42.419Z,2.50
2023-05-10T13:10:44.188Z,2.67
2023-05-10T13:13:53.099Z,2.60
2023-05-10T13:16:55.054Z,3.00
2023-05-10T13:19:56.770Z,2.97
2023-05-10T13:22:58.426Z,2.33
2023-05-10T13:26:00.121Z,2.40
2023-05-10T13:29:01.758Z,2.60
2023-05-10T13:32:03.483Z,2.37
2023-05-10T13:35:06.316Z,2.23
2023-05-10T13:38:08.984Z,2.10
2023-05-10T13:41:11.514Z,2.60
2023-05-10T13:44:15.050Z,2.53
2023-05-10T13:47:16.858Z,2.30
2023-05-10T13:50:19.392Z,2.67
2023-05-10T13:53:21.068Z,2.40
2023-05-10T13:56:23.009Z,2.60
2023-05-10T13:59:24.683Z,2.33
2023-05-10T14:02:28.490Z,2.50
2023-05-10T14:05:30.280Z,2.60
2023-05-10T14:08:32.004Z,3.27
2023-05-10T14:11:33.669Z,3.33
2023-05-10T14:14:35.684Z,2.77
2023-05-10T14:17:37.423Z,3.03
2023-05-10T14:20:39.127Z,2.87
2023-05-10T14:23:41.197Z,3.40
2023-05-10T14:26:42.881Z,3.20
2023-05-10T14:29:44.622Z,3.23
2023-05-10T14:32:46.509Z,3.27
2023-05-10T14:35:48.807Z,2.67
2023-05-10T14:38:50.517Z,3.00
2023-05-10T14:41:53.091Z,2.80
2023-05-10T14:44:54.755Z,4.27
2023-05-10T14:47:56.486Z,3.47
2023-05-10T14:50:58.244Z,4.40
2023-05-10T14:54:00.004Z,4.83
2023-05-10T14:57:01.659Z,6.03
2023-05-10T15:00:04.753Z,4.87
2023-05-10T15:03:06.999Z,6.60
2023-05-10T15:06:09.819Z,4.70
2023-05-10T15:09:11.741Z,4.60
2023-05-10T15:12:13.490Z,3.60
2023-05-10T15:15:16.226Z,4.27
2023-05-10T15:18:18.737Z,3.30
2023-05-10T15:21:20.489Z,4.00
2023-05-10T15:24:22.966Z,5.60
2023-05-10T15:27:24.656Z,5.83
2023-05-10T15:30:26.403Z,4.70
2023-05-10T15:33:28.495Z,4.17
2023-05-10T15:36:30.269Z,3.57
2023-05-10T15:39:31.927Z,3.10
2023-05-10T15:42:33.890Z,4.10
2023-05-10T15:45:37.439Z,3.20
2023-05-10T15:48:40.240Z,3.60
2023-05-10T15:51:42.297Z,3.30
2023-05-10T15:54:43.946Z,2.50
2023-05-10T15:57:45.801Z,3.20
2023-05-10T16:00:47.535Z,3.13
2023-05-10T16:03:49.226Z,2.73
2023-05-10T16:06:50.881Z,3.60
2023-05-10T16:09:52.637Z,3.20
2023-05-10T16:12:55.550Z,3.80
2023-05-10T16:16:00.128Z,3.13
2023-05-10T16:19:03.703Z,3.60
2023-05-10T16:22:05.515Z,4.10
2023-05-10T16:25:07.488Z,3.83
2023-05-10T16:28:09.201Z,3.97
2023-05-10T16:31:11.001Z,4.80
2023-05-10T16:34:12.676Z,5.97
2023-05-10T16:37:14.341Z,4.07
2023-05-10T16:40:16.238Z,4.30
2023-05-10T16:43:17.996Z,4.27
2023-05-10T16:46:19.661Z,4.40
2023-05-10T16:49:21.971Z,4.20
2023-05-10T16:52:24.805Z,3.70
2023-05-10T16:55:26.581Z,4.17
2023-05-10T16:58:28.260Z,4.30
2023-05-10T17:01:29.942Z,4.40
2023-05-10T17:04:31.715Z,3.97
2023-05-10T17:07:33.444Z,4.40
2023-05-10T17:10:35.230Z,4.23
2023-05-10T17:13:38.712Z,6.00
2023-05-10T17:16:40.488Z,6.20
2023-05-10T17:19:45.320Z,6.57
2023-05-10T17:22:47.035Z,7.40
2023-05-10T17:25:48.677Z,7.43
2023-05-10T17:28:50.438Z,6.00
2023-05-10T17:31:52.262Z,6.13
2023-05-10T17:34:54.042Z,6.10
2023-05-10T17:37:55.862Z,6.13
2023-05-10T17:40:57.489Z,7.27
2023-05-10T17:43:59.139Z,8.53
2023-05-10T17:47:00.946Z,7.53
2023-05-10T17:50:02.667Z,7.40
2023-05-10T17:53:04.323Z,8.50
2023-05-10T17:56:06.697Z,7.97
2023-05-10T17:59:08.435Z,7.07
2023-05-10T18:02:10.273Z,8.30
2023-05-10T18:05:12.128Z,7.50
2023-05-10T18:08:14.561Z,7.90
2023-05-10T18:11:16.673Z,6.93
2023-05-10T18:14:31.951Z,7.83
2023-05-10T18:17:38.373Z,6.50
2023-05-10T18:20:40.997Z,6.37
2023-05-10T18:23:42.737Z,6.30
2023-05-10T18:26:44.606Z,6.47
2023-05-10T18:29:48.364Z,6.93
2023-05-10T18:32:50.242Z,6.60
2023-05-10T18:35:52.095Z,7.30
2023-05-10T18:38:54.501Z,7.60
2023-05-10T18:41:56.162Z,7.13
2023-05-10T18:44:57.815Z,7.20
2023-05-10T18:47:59.548Z,7.07
2023-05-10T18:51:01.326Z,6.70
2023-05-10T18:54:03.450Z,6.80
2023-05-10T18:57:05.379Z,7.43
2023-05-10T19:00:12.204Z,6.97
2023-05-10T19:03:13.867Z,5.90
2023-05-10T19:06:15.584Z,7.43
2023-05-10T19:09:20.016Z,6.63
2023-05-10T19:12:21.691Z,7.27
2023-05-10T19:15:23.749Z,7.43
2023-05-10T19:18:26.385Z,7.80
2023-05-10T19:21:28.277Z,9.77
2023-05-10T19:24:29.945Z,7.17
2023-05-10T19:27:32.253Z,6.63
2023-05-10T19:30:34.056Z,6.37
2023-05-10T19:33:38.363Z,6.73
2023-05-10T19:36:40.479Z,7.10
2023-05-10T19:39:42.183Z,6.47
2023-05-10T19:42:43.848Z,7.97
2023-05-10T19:45:45.549Z,6.57
2023-05-10T19:48:48.797Z,7.40
2023-05-10T19:51:51.656Z,7.33
2023-05-10T19:54:53.351Z,8.03
2023-05-10T19:58:00.560Z,7.47
2023-05-10T20:01:02.734Z,6.20
2023-05-10T20:04:06.008Z,9.50
2023-05-10T20:07:07.740Z,6.70
2023-05-10T20:10:09.941Z,8.00
2023-05-10T20:13:11.854Z,6.20
2023-05-10T20:16:13.550Z,6.40
2023-05-10T20:19:15.465Z,5.97
2023-05-10T20:22:17.210Z,5.40
2023-05-10T20:25:19.570Z,6.97
2023-05-10T20:28:23.082Z,6.37
2023-05-10T20:31:25.061Z,6.50
2023-05-10T20:34:26.851Z,6.27
2023-05-10T20:37:29.149Z,6.17
2023-05-10T20:40:34.886Z,7.23
2023-05-10T20:43:36.817Z,8.97
2023-05-10T20:46:38.562Z,8.10
2023-05-10T20:49:40.607Z,7.63
2023-05-10T20:52:42.322Z,7.60
2023-05-10T20:55:44.042Z,7.40
2023-05-10T20:58:45.653Z,9.57
2023-05-10T21:01:47.575Z,11.80
2023-05-10T21:04:49.348Z,7.93
2023-05-10T21:07:54.064Z,7.57
2023-05-10T21:10:56.004Z,7.47
2023-05-10T21:13:57.651Z,7.10
2023-05-10T21:16:59.304Z,6.83
2023-05-10T21:20:00.960Z,6.93
2023-05-10T21:23:02.719Z,6.57
2023-05-10T21:26:04.725Z,7.27
2023-05-10T21:33:28.272Z,7.37
2023-05-10T21:36:44.123Z,7.87
2023-05-10T21:39:45.822Z,7.63
2023-05-10T21:42:49.288Z,6.20
2023-05-10T21:45:51.017Z,6.93
2023-05-10T21:48:52.813Z,6.77
2023-05-10T21:51:54.463Z,6.93
2023-05-10T21:54:56.122Z,6.30
2023-05-10T21:57:58.357Z,6.33
2023-05-10T22:01:23.176Z,7.67
2023-05-10T22:04:24.896Z,6.80
2023-05-10T22:07:26.563Z,7.63
2023-05-10T22:10:28.356Z,7.60
2023-05-10T22:13:30.086Z,9.07
2023-05-10T22:16:31.753Z,8.67
2023-05-10T22:19:33.495Z,8.90
2023-05-10T22:22:35.166Z,7.90
2023-05-10T22:25:36.953Z,8.00
2023-05-10T22:28:38.666Z,8.00
2023-05-10T22:31:40.874Z,7.33
2023-05-10T22:34:43.209Z,8.03
2023-05-10T22:37:44.921Z,7.53
2023-05-10T22:40:46.573Z,8.20
2023-05-10T22:43:48.528Z,7.47
2023-05-10T22:46:50.339Z,8.27
2023-05-10T22:49:52.169Z,10.63
2023-05-10T22:52:53.814Z,10.37
2023-05-10T22:55:55.539Z,10.00
2023-05-10T22:58:57.725Z,10.77
2023-05-10T23:01:59.418Z,9.50
2023-05-10T23:05:01.172Z,10.70
2023-05-10T23:08:02.895Z,10.47
2023-05-10T23:11:04.589Z,10.43
2023-05-10T23:14:06.250Z,9.97
2023-05-10T23:17:08.433Z,10.13
2023-05-10T23:20:10.812Z,10.50
2023-05-10T23:23:12.549Z,9.67
2023-05-10T23:30:36.504Z,9.97
2023-05-10T23:33:38.177Z,9.60
2023-05-10T23:36:39.993Z,10.13
2023-05-10T23:39:41.828Z,10.37
2023-05-10T23:42:43.482Z,10.67
2023-05-10T23:45:56.648Z,9.83
2023-05-10T23:48:58.352Z,10.03
2023-05-10T23:51:59.999Z,9.57
2023-05-10T23:55:01.740Z,10.40
2023-05-10T23:58:03.604Z,10.00
